Markville, Minnesota
Current Conditions -  °F | °C
As of 10:43 AM on Wednesday 22 Oct 2014 (Local Time) from K04W Reporting Station
Clear Clear  
Wind Chill: 50°   Ceiling: Unl
Heat Index: 50°   Visibility: 10mi
Dew Point: 39°   Wind: 12mph
Humidity: 66%   Direction: 160°SSE
Pressure: 30.18"   Gusts: 17mph
Location:  46.138°N, 92.5611°W
Report Text: K04W 221543Z AUTO 16010G15KT 10SM CLR 10/04 A3018 RMK AO2
Loading
Personal Weather Stations






























Interactive Weather Map
Tropical Storm Tracking
New forecast layout! Learn more

10-Day Weather Forecast

Advertisements
Track Severe Weather on mobile